Terminal Aerodrome Forecast
Issued by NWS

Home | Current Version | Previous Version | Graphics & Text | Print | Product List | Glossary On
Versions: 1 2 3 4 5 6 7 8 9 10 11 12 13 14 15 16 17 18 19 20 21 22 23 24 25 26 27 28 29 30
000
FTUS43 KLOT 202100 AAB
TAFORD
TAF AMD
KORD 202158Z 2022/2124 20012KT P6SM BKN250
     FM210100 19007KT P6SM BKN150
     FM211500 22010KT P6SM SCT060 BKN100
     FM211800 25013G19KT P6SM VCSH BKN050
      TEMPO 2121/2124 5SM SHRA=

USA.gov is the U.S. government's official web portal to all federal, state and local government web resources and services.